Nearby METAR Reports
LFBA - Agen,(47)Lot-et-Garonne
Mise à jour: Sat, 20-Jul-2019 01:00 CEST
Clear
Clear
 Wind from varies
Vent: varies 6 km/h
Température: 28°C
Humidex: 28°C
Point de Rosée: 17°C
Humidité: 51%
Barometre: 1016 hPa
Visibilité: greater than 10 km
2019/07/20 11:00 LFBA 201100Z AUTO VRB03KT CAVOK 28/17 Q1016 NOSIG
LFKJ - Ajaccio,(2A)Corse-du-Sud
Mise à jour: Sat, 20-Jul-2019 01:00 CEST
Clear
Clear
 Wind from SW
Vent: SW 19 km/h
Température: 30°C
Humidex: 31°C
Point de Rosée: 18°C
Humidité: 49%
Barometre: 1018 hPa
Visibilité: greater than 10 km
2019/07/20 11:00 LFKJ 201100Z AUTO 22010KT CAVOK 30/18 Q1018 NOSIG
LFLP - Annecy,(74)Haute-Savoie
Mise à jour: Sat, 20-Jul-2019 01:00 CEST
Clear
Clear
 Wind from SW
Vent: SW 17 km/h
Température: 29°C
Point de Rosée: 13°C
Humidité: 37%
Barometre: 1019 hPa
Visibilité: greater than 10 km
2019/07/20 11:00 LFLP 201100Z AUTO 23009KT 200V270 CAVOK 29/13 Q1019 NOSIG
 
LFLW - Aurillac,(15)Cantal
Mise à jour: Sat, 20-Jul-2019 01:00 CEST
Clear
Clear
 Wind from S
Vent: S 11 km/h
Température: 25°C
Point de Rosée: 16°C
Humidité: 57%
Barometre: 1019 hPa
Visibilité: greater than 10 km
2019/07/20 11:00 LFLW 201100Z AUTO 17006KT 130V220 CAVOK 25/16 Q1019 TEMPO 24020G35KT 4000 TSRA BKN014 BKN045CB
LFOA - Avord,(18)Cher
Mise à jour: Sat, 20-Jul-2019 01:00 CEST
Clear
Clear
 Wind from W
Vent: W 24 km/h
Température: 27°C
Humidex: 27°C
Point de Rosée: 15°C
Humidité: 48%
Barometre: 1015 hPa
Visibilité: greater than 10 km
2019/07/20 11:00 LFOA 201100Z AUTO 26013KT CAVOK 27/15 Q1015
LFSB - Bale(CH)-Mulhouse,(68)Haut-Rhin
Mise à jour: Sat, 20-Jul-2019 01:00 CEST
Clear
Clear
 Wind from WSW
Vent: WSW 13 km/h
Température: 31°C
Point de Rosée: 13°C
Humidité: 33%
Barometre: 1015 hPa
Visibilité: greater than 10 km
2019/07/20 11:00 LFSB 201100Z 25007KT 180V300 CAVOK 31/13 Q1015 NOSIG
 
LFKB - Bastia,(2B)Haute-Corse
Mise à jour: Sat, 20-Jul-2019 01:00 CEST
Few Clouds
Few Clouds
 Wind from ESE
Vent: ESE 15 km/h
Température: 28°C
Humidex: 30°C
Point de Rosée: 21°C
Humidité: 66%
Barometre: 1018 hPa
Nuage: Few Clouds
Visibilité: 10 km
2019/07/20 11:00 LFKB 201100Z AUTO 12008KT 080V150 9999 FEW028 28/21 Q1018 NOSIG
LFOB - Beauvais,(60)Oise
Mise à jour: Sat, 20-Jul-2019 01:00 CEST
Mostly Cloudy
Mostly Cloudy
 Wind from SW
Vent: SW 28 km/h
Température: 27°C
Humidex: 27°C
Point de Rosée: 15°C
Humidité: 48%
Barometre: 1011 hPa
Nuage: Mostly Cloudy
Visibilité: 10 km
2019/07/20 11:00 LFOB 201100Z AUTO 23015KT 9999 BKN040 BKN054 BKN064 27/15 Q1011 TEMPO VRB15G30KT 4000 TSRA BKN030CB
LFBE - Bergerac,(24)Dordogne
Mise à jour: Sat, 20-Jul-2019 01:00 CEST
Mostly Cloudy
Mostly Cloudy
 Wind from WSW
Vent: WSW 7 km/h
Température: 26°C
Point de Rosée: 16°C
Humidité: 54%
Barometre: 1016 hPa
Nuage: Mostly Cloudy
Visibilité: 10 km
2019/07/20 11:00 LFBE 201100Z AUTO 24004KT 170V290 9999 FEW032 BKN094 BKN110 26/16 Q1016 NOSIG
 
LFMU - Beziers, Vias,(34)Hérault
Mise à jour: Sat, 20-Jul-2019 01:00 CEST
Overcast
Overcast
 Wind from E
Vent: E 24 km/h
Température: 26°C
Point de Rosée: 20°C
Humidité: 70%
Barometre: 1018 hPa
Nuage: Overcast
Visibilité: 10 km
2019/07/20 11:00 LFMU 201100Z AUTO 09013KT 070V130 9999 BKN016 BKN026 OVC031 26/20 Q1018 TEMPO BKN012
LFBZ - Biarritz,(64)Pyrénées-Atlantiques
Mise à jour: Sat, 20-Jul-2019 01:00 CEST
Overcast
Overcast
 Wind from varies
Vent: varies 4 km/h
Température: 23°C
Point de Rosée: 19°C
Humidité: 78%
Barometre: 1017 hPa
Nuage: Overcast
Visibilité: 10 km
2019/07/20 11:00 LFBZ 201100Z AUTO VRB02KT 9999 BKN022 OVC027 23/19 Q1017 NOSIG
LFBD - Bordeaux , Merignac,(33)Gironde
Mise à jour: Sat, 20-Jul-2019 01:00 CEST
Mostly Cloudy
Mostly Cloudy
 Wind from WNW
Vent: WNW 11 km/h
Température: 27°C
Humidex: 28°C
Point de Rosée: 16°C
Humidité: 51%
Barometre: 1017 hPa
Nuage: Mostly Cloudy
Visibilité: 10 km
2019/07/20 11:00 LFBD 201100Z AUTO 29006KT 240V350 9999 BKN034 BKN080 27/16 Q1017 NOSIG
 
LFAQ - Bray,(80)Somme
Mise à jour: Sat, 20-Jul-2019 01:00 CEST
Overcast
Overcast
 Wind from WSW
Vent: WSW 30 km/h
Température: 26°C
Point de Rosée: 15°C
Humidité: 51%
Barometre: 1010 hPa
Nuage: Overcast
Visibilité: 10 km
2019/07/20 11:00 LFAQ 201100Z AUTO 24016KT 9999 BKN043 BKN049 OVC220 26/15 Q1010 TEMPO 25020G35KT 2000 TSRAGS BKN040CB
LFRB - Brest,(29)Finistère
Mise à jour: Sat, 20-Jul-2019 01:00 CEST
Overcast
Overcast
 Wind from WSW
Vent: WSW 20 km/h
Température: 20°C
Point de Rosée: 15°C
Humidité: 73%
Barometre: 1013 hPa
Nuage: Overcast
Visibilité: 10 km
2019/07/20 11:00 LFRB 201100Z AUTO 25011KT 9999 BKN021 OVC028 20/15 Q1013 NOSIG
LFBU - Brie,Champniers,(16)Charente
Mise à jour: Sat, 20-Jul-2019 01:00 CEST
Overcast
Overcast
 Wind from WSW
Vent: WSW 11 km/h
Température: 23°C
Point de Rosée: 17°C
Humidité: 69%
Barometre: 1017 hPa
Nuage: Overcast
Visibilité: 10 km
2019/07/20 11:00 LFBU 201100Z AUTO 25006KT 180V280 9999 FEW023 OVC086 23/17 Q1017 NOSIG
 
LFSL - Brive (19), Souillac(46),Corrèze Lot
Mise à jour: Sat, 20-Jul-2019 01:00 CEST
Clear
Clear
 Wind from SSW
Vent: SSW 13 km/h
Température: 26°C
Point de Rosée: 18°C
Humidité: 61%
Barometre: 1017 hPa
Visibilité: greater than 10 km
2019/07/20 11:00 LFSL 201100Z AUTO 20007KT 140V270 CAVOK 26/18 Q1017 TEMPO SCT060TCU
LFRK - Caen,(14)Calvados
Mise à jour: Sat, 20-Jul-2019 01:00 CEST
Mostly Cloudy
Mostly Cloudy
 Wind from W
Vent: W 24 km/h
Température: 22°C
Point de Rosée: 16°C
Humidité: 69%
Barometre: 1012 hPa
Nuage: Mostly Cloudy
Visibilité: 10 km
2019/07/20 11:00 LFRK 201100Z AUTO 27013KT 9999 FEW025 SCT036 BKN049 22/16 Q1012 TEMPO 26015G25KT SHRA BKN020TCU
LFKC - Calvi,(2B)Haute-Corse
Mise à jour: Sat, 20-Jul-2019 01:00 CEST
Clear
Clear
 Wind from N
Vent: N 20 km/h
Température: 28°C
Humidex: 30°C
Point de Rosée: 21°C
Humidité: 66%
Barometre: 1018 hPa
Visibilité: greater than 10 km
2019/07/20 11:00 LFKC 201100Z AUTO 35011KT 320V020 CAVOK 28/21 Q1018 NOSIG
 
LFMD - Cannes,(06)Alpes-Maritimes
Mise à jour: Sat, 20-Jul-2019 01:00 CEST
Clear
Clear
 Wind from SSE
Vent: SSE 13 km/h
Température: 27°C
Humidex: 29°C
Point de Rosée: 21°C
Humidité: 70%
Barometre: 1019 hPa
Visibilité: greater than 10 km
2019/07/20 11:00 LFMD 201100Z AUTO 16007KT 110V190 CAVOK 27/21 Q1019 NOSIG
LFMK - Carcassonne,(11)Aude
Mise à jour: Sat, 20-Jul-2019 01:00 CEST
Overcast
Overcast
 Wind from E
Vent: E 19 km/h
Température: 23°C
Point de Rosée: 20°C
Humidité: 83%
Barometre: 1017 hPa
Nuage: Overcast
Visibilité: 10 km
2019/07/20 11:00 LFMK 201100Z AUTO 09010KT 070V130 9999 OVC015 23/20 Q1017 TEMPO 10020G30KT SHRA BKN010TCU
LFCK - Castre-Mazamet,(81)Tarn
Mise à jour: Sat, 20-Jul-2019 01:00 CEST
Overcast
Overcast
 Wind from ESE
Vent: ESE 26 km/h
Température: 27°C
Humidex: 28°C
Point de Rosée: 18°C
Humidité: 58%
Barometre: 1018 hPa
Nuage: Overcast
Visibilité: 10 km
2019/07/20 11:00 LFCK 201100Z AUTO 12014KT 9999 OVC035 27/18 Q1018 BECMG 12018G28KT
 
LFMV - Avignon/Caumont,(84) Vaucluse
Mise à jour: Sat, 20-Jul-2019 01:00 CEST
Clear
Clear
 Wind from varies
Vent: varies 4 km/h
Température: 28°C
Humidex: 29°C
Point de Rosée: 18°C
Humidité: 55%
Barometre: 1018 hPa
Visibilité: greater than 10 km
2019/07/20 11:00 LFMV 201100Z AUTO VRB02KT CAVOK 28/18 Q1018 BECMG 20013KT
LFBC - Cazaux, (33)Gironde
Mise à jour: Sat, 20-Jul-2019 01:00 CEST
Mostly Cloudy
Mostly Cloudy
 Wind from SW
Vent: SW 13 km/h
Température: 26°C
Point de Rosée: 17°C
Humidité: 58%
Barometre: 1017 hPa
Nuage: Mostly Cloudy
Visibilité: 10 km
2019/07/20 11:00 LFBC 201100Z AUTO 23007KT 200V270 9999 BKN031 BKN037 26/17 Q1017 NOSIG
LFOK - Chalon,Vatry,(51)Marne
Mise à jour: Sat, 20-Jul-2019 01:00 CEST
Clear
Clear
 Wind from WSW
Vent: WSW 30 km/h
Température: 28°C
Humidex: 28°C
Point de Rosée: 15°C
Humidité: 45%
Barometre: 1012 hPa
Visibilité: greater than 10 km
2019/07/20 11:00 LFOK 201100Z AUTO 24016KT CAVOK 28/15 Q1012 BECMG 22015G25KT
 
LFLB - Chambery,Aix Bai,(73)Savoie
Mise à jour: Sat, 20-Jul-2019 01:00 CEST
Clear
Clear
 Wind from N
Vent: N 13 km/h
Température: 30°C
Humidex: 29°C
Point de Rosée: 15°C
Humidité: 40%
Barometre: 1017 hPa
Visibilité: greater than 10 km
2019/07/20 11:00 LFLB 201100Z AUTO 35007KT CAVOK 30/15 Q1017 NOSIG
LFOC - Chateaudun,(28)Eure-et-Loir
Mise à jour: Sat, 20-Jul-2019 01:00 CEST
Overcast
Overcast
 Wind from SW
Vent: SW 26 km/h
Température: 25°C
Point de Rosée: 17°C
Humidité: 61%
Barometre: 1014 hPa
Nuage: Overcast
Visibilité: 10 km
2019/07/20 11:00 LFOC 201100Z AUTO 23014KT 200V260 9999 OVC032 25/17 Q1014
LFLX - Chateauroux,(36)Indre
Mise à jour: Sat, 20-Jul-2019 01:00 CEST
Clear
Clear
 Wind from SW
Vent: SW 24 km/h
Température: 27°C
Humidex: 27°C
Point de Rosée: 15°C
Humidité: 48%
Barometre: 1015 hPa
Visibilité: greater than 10 km
2019/07/20 11:00 LFLX 201100Z AUTO 23013KT 200V270 CAVOK 27/15 Q1015 NOSIG
 
LFRC - Cherbourg , Maupertus,(50)Manche
Mise à jour: Sat, 20-Jul-2019 01:00 CEST
Mostly Cloudy
Mostly Cloudy
 Wind from W
Vent: W 33 km/h
Température: 19°C
Point de Rosée: 16°C
Humidité: 83%
Barometre: 1011 hPa
Nuage: Mostly Cloudy
Visibilité: 10 km
2019/07/20 11:00 LFRC 201100Z AUTO 26018KT 9999 BKN017 BKN026 BKN037 19/16 Q1011 TEMPO 26015G25KT SHRA BKN015TCU
LFLC - Clermont-Ferrand,(63)Puy-de-Dôme
Mise à jour: Sat, 20-Jul-2019 01:00 CEST
Clear
Clear
 Wind from SSE
Vent: SSE 22 km/h
Température: 30°C
Point de Rosée: 11°C
Humidité: 31%
Barometre: 1015 hPa
Visibilité: greater than 10 km
2019/07/20 11:00 LFLC 201100Z AUTO 16012KT 130V190 CAVOK 30/11 Q1015 TEMPO VRB20G35KT 3000 TSRA BKN035 BKN080CB
LFBG - Cognac,(16)Charente
Mise à jour: Sat, 20-Jul-2019 01:00 CEST
Overcast
Overcast
 Wind from WSW
Vent: WSW 15 km/h
Température: 24°C
Point de Rosée: 17°C
Humidité: 65%
Barometre: 1016 hPa
Nuage: Overcast
Visibilité: 10 km
2019/07/20 11:00 LFBG 201100Z AUTO 25008KT 220V280 9999 BKN025 OVC033 24/17 Q1016 NOSIG
 
LFGA - Colmar,(68)Haut-Rhin
Mise à jour: Sat, 20-Jul-2019 01:00 CEST
Clear
Clear
 Wind from SW
Vent: SW 24 km/h
Température: 32°C
Point de Rosée: 13°C
Humidité: 31%
Barometre: 1014 hPa
Visibilité: greater than 10 km
2019/07/20 11:00 LFGA 201100Z AUTO 23013KT 200V260 CAVOK 32/13 Q1014
LFPT - Cormeilles Vexin,(95)Val-d Oise
Mise à jour: Sat, 20-Jul-2019 01:00 CEST
Mostly Cloudy
Mostly Cloudy
 Wind from W
Vent: W 24 km/h
Température: 26°C
Point de Rosée: 16°C
Humidité: 54%
Barometre: 1011 hPa
Nuage: Mostly Cloudy
Visibilité: 10 km
2019/07/20 11:00 LFPT 201100Z AUTO 26013KT 230V310 9999 SCT038 BKN044 BKN054 26/16 Q1011
LFPC - Creil Fafb,(60)Oise
Mise à jour: Thu, 01-Sep-2016 05:00 CEST
Pas Actualisé
Clear
Clear
 Wind from WNW
Vent: WNW 7 km/h
Température: 24°C
Point de Rosée: 13°C
Humidité: 50%
Barometre: 1023 hPa
Visibilité: greater than 10 km
2016/09/01 15:00 LFPC 011500Z AUTO 30004KT 240V350 CAVOK 24/13 Q1023
 
LFBY - Dax,(40)Landes
Mise à jour: Sat, 20-Jul-2019 01:00 CEST

 Wind from varies
Vent: varies 4 km/h
Température: 25°C
Point de Rosée: 19°C
Humidité: 69%
Barometre: 1017 hPa
Visibilité: 10 km
2019/07/20 11:00 LFBY 201100Z AUTO VRB02KT 9999 // ////// 25/19 Q1017
LFRG - Deauville/Saint-Gatien,(14)Calvados
Mise à jour: Sat, 20-Jul-2019 01:00 CEST
Overcast
Overcast
 Wind from W
Vent: W 24 km/h
Température: 20°C
Point de Rosée: 18°C
Humidité: 88%
Barometre: 1012 hPa
Nuage: Overcast
Visibilité: 10 km
2019/07/20 11:00 LFRG 201100Z AUTO 28013KT 9999 BKN011 BKN031 OVC038 20/18 Q1012 TEMPO 26015G25KT SHRA BKN020TCU
LFSD - Dijon,(31)Côte-d Or
Mise à jour: Sat, 20-Jul-2019 01:00 CEST
Clear
Clear
 Wind from S
Vent: S 24 km/h
Température: 27°C
Humidex: 27°C
Point de Rosée: 14°C
Humidité: 45%
Barometre: 1015 hPa
Visibilité: greater than 10 km
2019/07/20 11:00 LFSD 201100Z AUTO 19013KT CAVOK 27/14 Q1015
 
LFRD - Dinard,(35)Ille-et-Vilaine
Mise à jour: Sat, 20-Jul-2019 01:00 CEST
Mostly Cloudy
Mostly Cloudy
 Wind from WNW
Vent: WNW 19 km/h
Température: 23°C
Point de Rosée: 16°C
Humidité: 65%
Barometre: 1012 hPa
Nuage: Mostly Cloudy
Visibilité: 10 km
2019/07/20 11:00 LFRD 201100Z AUTO 29010KT 260V320 9999 SCT028 BKN039 BKN050 23/16 Q1012 TEMPO SHRA BKN020TCU
LFGJ - Dole-Tavaux,(39) Jura
Mise à jour: Sat, 20-Jul-2019 01:00 CEST
Clear
Clear
 Wind from SSW
Vent: SSW 22 km/h
Température: 29°C
Humidex: 28°C
Point de Rosée: 14°C
Humidité: 40%
Barometre: 1015 hPa
Visibilité: greater than 10 km
2019/07/20 11:00 LFGJ 201100Z AUTO 21012KT 180V240 CAVOK 29/14 Q1015 BECMG FEW070CB SCT090
FMCZ - Dzaoudzi-Pamandzi,(976)Mayotte
Mise à jour: Sat, 20-Jul-2019 01:00 CEST
Clear
Clear
 Wind from S
Vent: S 17 km/h
Température: 28°C
Humidex: 30°C
Point de Rosée: 21°C
Humidité: 66%
Barometre: 1014 hPa
Visibilité: greater than 10 km
2019/07/20 11:00 FMCZ 201100Z AUTO 19009KT CAVOK 28/21 Q1014 NOSIG
 
LFOE - Evreux,(27)Eure
Mise à jour: Sat, 20-Jul-2019 01:00 CEST
Thunderstorm
Thunderstorm
 Wind from SW
Vent: SW 28 km/h
Température: 24°C
Point de Rosée: 15°C
Humidité: 57%
Barometre: 1012 hPa
Nuage: Thunderstorm
Visibilité: 10 km
2019/07/20 11:00 LFOE 201100Z AUTO 22015KT 190V270 9999 FEW032/// BKN045/// ///TCU 24/15 Q1012 TEMPO VRB15G30KT 2000 -TSRA BKN025CB
LFSG - EPINAL Mirecourt,(88)Vosges
Mise à jour: Sat, 20-Jul-2019 01:00 CEST
Clear
Clear
 Wind from SSW
Vent: SSW 19 km/h
Température: 28°C
Humidex: 28°C
Point de Rosée: 14°C
Humidité: 42%
Barometre: 1014 hPa
Visibilité: greater than 10 km
2019/07/20 11:00 LFSG 201100Z AUTO 20010KT CAVOK 28/14 Q1014
LFKF - Figari,(2A)Corse-du-Sud
Mise à jour: Sat, 20-Jul-2019 01:00 CEST
Clear
Clear
 Wind from ENE
Vent: ENE 19 km/h
Température: 32°C
Point de Rosée: 15°C
Humidité: 36%
Barometre: 1018 hPa
Visibilité: greater than 10 km
2019/07/20 11:00 LFKF 201100Z AUTO 06010KT 030V110 CAVOK 32/15 Q1018 NOSIG
 
LFLS - Grenoble , St. Geoirs,(38)Isère
Mise à jour: Sat, 20-Jul-2019 01:00 CEST
Clear
Clear
 Wind from SW
Vent: SW 26 km/h
Température: 29°C
Point de Rosée: 11°C
Humidité: 33%
Barometre: 1018 hPa
Visibilité: greater than 10 km
2019/07/20 11:00 LFLS 201100Z AUTO 22014KT CAVOK 29/11 Q1018 NOSIG
LFTH - Hyeres,(83)Var
Mise à jour: Sat, 20-Jul-2019 01:00 CEST

 Wind from ESE
Vent: ESE 20 km/h
Température: 28°C
Humidex: 29°C
Point de Rosée: 19°C
Humidité: 58%
Barometre: 1018 hPa
Visibilité: 10 km
2019/07/20 11:00 LFTH 201100Z AUTO 12011KT 9999 ////// 28/19 Q1018
LFMI - Istres,(13)Bouches-du-Rhône
Mise à jour: Sat, 20-Jul-2019 01:00 CEST
Clear
Clear
 Wind from ESE
Vent: ESE 17 km/h
Température: 29°C
Humidex: 30°C
Point de Rosée: 19°C
Humidité: 55%
Barometre: 1017 hPa
Visibilité: greater than 10 km
2019/07/20 11:00 LFMI 201100Z AUTO 12009KT 070V150 CAVOK 29/19 Q1017 NOSIG
 
LFOH - La Heve,(76)Seine-Maritime
Mise à jour: Sat, 20-Jul-2019 01:00 CEST
Overcast
Overcast
 Wind from W
Vent: W 20 km/h
Température: 19°C
Point de Rosée: 17°C
Humidité: 88%
Barometre: 1012 hPa
Nuage: Overcast
Visibilité: 10 km
2019/07/20 11:00 LFOH 201100Z AUTO 27011KT 9999 FEW011 OVC037 19/17 Q1012 TEMPO 4000 TSRAGS BKN005 BKN030CB BECMG 21008KT
LFRI - La Roche-Sur-Yon,(85)Vendée
Mise à jour: Sat, 20-Jul-2019 01:00 CEST
Overcast
Overcast
 Wind from SW
Vent: SW 17 km/h
Température: 23°C
Point de Rosée: 17°C
Humidité: 69%
Barometre: 1015 hPa
Nuage: Overcast
Visibilité: 10 km
2019/07/20 11:00 LFRI 201100Z AUTO 23009KT 160V270 9999 BKN026 BKN032 OVC039 23/17 Q1015 TEMPO SCT020TCU
LFBH - La Rochelle,(17)Charente-Maritime
Mise à jour: Sat, 20-Jul-2019 01:00 CEST
Overcast
Overcast
 Wind from W
Vent: W 20 km/h
Température: 24°C
Point de Rosée: 18°C
Humidité: 69%
Barometre: 1016 hPa
Nuage: Overcast
Visibilité: 10 km
2019/07/20 11:00 LFBH 201100Z AUTO 26011KT 230V290 9999 SCT017 SCT025 OVC047 24/18 Q1016 NOSIG
 
LFOV - Laval,Entrammes,(53)Mayenne
Mise à jour: Sat, 20-Jul-2019 01:00 CEST
Thunderstorm
Thunderstorm
 Wind from WSW
Vent: WSW 22 km/h
Température: 21°C
Point de Rosée: 18°C
Humidité: 83%
Barometre: 1013 hPa
Nuage: Thunderstorm
Visibilité: 10 km
2019/07/20 11:00 LFOV 201100Z AUTO 24012KT 200V280 9999 FEW019/// BKN054/// BKN064/// ///CB 21/18 Q1013
LFRJ - Landivisiau,(29)Finistère
Mise à jour: Sat, 20-Jul-2019 01:00 CEST
Mostly Cloudy
Mostly Cloudy
 Wind from W
Vent: W 26 km/h
Température: 21°C
Point de Rosée: 15°C
Humidité: 69%
Barometre: 1013 hPa
Nuage: Mostly Cloudy
Visibilité: 10 km
2019/07/20 11:00 LFRJ 201100Z AUTO 26014KT 9999 FEW023 BKN034 BKN230 21/15 Q1013
LFRO - Lannion,Servel,(22)Côtes-d Armor
Mise à jour: Sat, 20-Jul-2019 12:30 CEST
Mostly Cloudy
Mostly Cloudy
 Wind from W
Vent: W 17 km/h
Température: 20°C
Point de Rosée: 16°C
Humidité: 78%
Barometre: 1012 hPa
Nuage: Mostly Cloudy
Visibilité: 10 km
2019/07/20 10:30 LFRO 201030Z AUTO 26009KT 9999 FEW014 SCT021 BKN028 20/16 Q1012
 
LFRL - Lanveoc Poulmic,(29)Finistère
Mise à jour: Sat, 20-Jul-2019 01:00 CEST
Overcast
Overcast
 Wind from WSW
Vent: WSW 26 km/h
Température: 20°C
Point de Rosée: 16°C
Humidité: 78%
Barometre: 1013 hPa
Nuage: Overcast
Visibilité: 10 km
2019/07/20 11:00 LFRL 201100Z AUTO 25014KT 9999 BKN011 BKN018 OVC029 20/16 Q1013
TFFF - Le Lamentin,(972)Martinique
Mise à jour: Sat, 20-Jul-2019 01:00 CEST
Few Clouds
Few Clouds
 Wind from ESE
Vent: ESE 13 km/h
Température: 27°C
Humidex: 31°C
Point de Rosée: 24°C
Humidité: 84%
Barometre: 1015 hPa
Nuage: Few Clouds
Visibilité: 10 km
2019/07/20 11:00 TFFF 201100Z AUTO 11007KT 9999 FEW023 27/24 Q1015 TEMPO 4000 SHRA BKN018TCU
LFMC - Le Luc,(83)Var
Mise à jour: Sat, 20-Jul-2019 01:00 CEST

 Wind from SSE
Vent: SSE 11 km/h
Température: 31°C
Humidex: 31°C
Point de Rosée: 16°C
Humidité: 40%
Barometre: 1018 hPa
Visibilité: 10 km
2019/07/20 11:00 LFMC 201100Z AUTO 15006KT 090V250 9999 ////// 31/16 Q1018
 
LFRM - Le Mans,(72)Sarthe
Mise à jour: Sat, 20-Jul-2019 01:00 CEST
Mostly Cloudy
Mostly Cloudy
 Wind from SSW
Vent: SSW 19 km/h
Température: 25°C
Point de Rosée: 16°C
Humidité: 57%
Barometre: 1013 hPa
Nuage: Mostly Cloudy
Visibilité: 10 km
2019/07/20 11:00 LFRM 201100Z AUTO 21010KT 170V260 9999 BKN029 BKN035 BKN046 25/16 Q1013 TEMPO SHRA SCT030TCU
LFAT - Le Touquet,(62)Pas-de-Calais
Mise à jour: Sat, 20-Jul-2019 01:00 CEST
Thunderstorm
Thunderstorm
 Wind from WSW
Vent: WSW 22 km/h, Gust: 41 km/h
Température: 21°C
Point de Rosée: 18°C
Humidité: 83%
Barometre: 1010 hPa
Nuage: Thunderstorm
Visibilité: 10 km
2019/07/20 11:00 LFAT 201100Z AUTO 24012G22KT 200V290 9999 BKN018/// BKN062/// BKN072/// ///CB 21/18 Q1010 TEMPO 2000 TSRAGS BECMG BKN020
LFQQ - Lille,(59)Nord
Mise à jour: Sat, 20-Jul-2019 01:00 CEST
Thunderstorm
Thunderstorm
 Wind from SSW
Vent: SSW 22 km/h
Température: 26°C
Point de Rosée: 15°C
Humidité: 51%
Barometre: 1009 hPa
Nuage: Thunderstorm
Visibilité: 10 km
2019/07/20 11:00 LFQQ 201100Z AUTO 21012KT 180V290 9999 BKN042/// BKN048/// BKN056/// ///CB 26/15 Q1009 TEMPO 25015G30KT 2000 TSRAGS
 
LFRH - Lorient/Lann Bih,(56)Morbihan
Mise à jour: Sat, 20-Jul-2019 01:00 CEST
Clear
Clear
 Wind from W
Vent: W 22 km/h
Température: 20°C
Point de Rosée: 16°C
Humidité: 78%
Barometre: 1014 hPa
Visibilité: greater than 10 km
2019/07/20 11:00 LFRH 201100Z AUTO 26012KT CAVOK 20/16 Q1014 TEMPO 4000 -SHRA BKN020TCU
LFBL - Limoges,(87)Haute-Vienne
Mise à jour: Sat, 20-Jul-2019 01:00 CEST
Mostly Cloudy
Mostly Cloudy
 Wind from SSW
Vent: SSW 24 km/h
Température: 24°C
Point de Rosée: 17°C
Humidité: 65%
Barometre: 1017 hPa
Nuage: Mostly Cloudy
Visibilité: 10 km
2019/07/20 11:00 LFBL 201100Z AUTO 21013KT 9999 BKN026 BKN032 BKN088 24/17 Q1017 NOSIG
LFSX - Luxeuil-les-Bains,(70)Haute-Saône
Mise à jour: Sat, 20-Jul-2019 01:00 CEST
Mostly Cloudy
Mostly Cloudy
 Wind from WSW
Vent: WSW 24 km/h
Température: 28°C
Humidex: 28°C
Point de Rosée: 14°C
Humidité: 42%
Barometre: 1015 hPa
Nuage: Mostly Cloudy
Visibilité: 10 km
2019/07/20 11:00 LFSX 201100Z AUTO 24013KT 9999 FEW045 BKN120 BKN180 28/14 Q1015
 
LFLY - Lyon,Bron,(69) Rhône
Mise à jour: Sat, 20-Jul-2019 01:00 CEST
Clear
Clear
 Wind from S
Vent: S 28 km/h
Température: 28°C
Point de Rosée: 12°C
Humidité: 37%
Barometre: 1016 hPa
Visibilité: greater than 10 km
2019/07/20 11:00 LFLY 201100Z AUTO 18015KT CAVOK 28/12 Q1016 TEMPO 18015G27KT FEW090TCU
LFLL - Lyon,Satolas,(69) Rhône
Mise à jour: Sat, 20-Jul-2019 01:00 CEST
Mostly Cloudy
Mostly Cloudy
 Wind from S
Vent: S 26 km/h
Température: 28°C
Point de Rosée: 12°C
Humidité: 37%
Barometre: 1017 hPa
Nuage: Mostly Cloudy
Visibilité: 10 km
2019/07/20 11:00 LFLL 201100Z 19014KT 160V220 9999 SCT110TCU BKN170 28/12 Q1017 NOSIG
LFJR - Marcé,(49) Maine-et-Loire
Mise à jour: Sat, 20-Jul-2019 01:00 CEST
Mostly Cloudy
Mostly Cloudy
 Wind from SW
Vent: SW 22 km/h
Température: 25°C
Point de Rosée: 17°C
Humidité: 61%
Barometre: 1014 hPa
Nuage: Mostly Cloudy
Visibilité: 10 km
2019/07/20 11:00 LFJR 201100Z AUTO 23012KT 200V260 9999 FEW030 SCT035 BKN045 25/17 Q1014
 
LFML - Marseille, Marignane,(13)Bouches-du-Rhône
Mise à jour: Sat, 20-Jul-2019 01:00 CEST
Few Clouds
Few Clouds
 Wind from WNW
Vent: WNW 9 km/h
Température: 29°C
Humidex: 31°C
Point de Rosée: 20°C
Humidité: 58%
Barometre: 1018 hPa
Nuage: Few Clouds
Visibilité: 10 km
2019/07/20 11:00 LFML 201100Z AUTO 30005KT 270V350 9999 FEW036 29/20 Q1018 BECMG 18013KT
SOCA - Matury,(973)Guyane
Mise à jour: Sat, 20-Jul-2019 01:00 CEST
Mostly Cloudy
Mostly Cloudy
 Wind from calm
Vent: Calm
Température: 24°C
Point de Rosée: 23°C
Humidité: 94%
Barometre: 1013 hPa
Nuage: Mostly Cloudy
Visibilité: 10 km
2019/07/20 11:00 SOCA 201100Z AUTO 00000KT 9999 BKN002 BKN019 BKN078 24/23 Q1013 TEMPO 3000 SHRA FEW020TCU
LFPM - Melun,(77)Seine-et-Marne
Mise à jour: Sat, 20-Jul-2019 01:00 CEST
Clear
Clear
 Wind from SW
Vent: SW 30 km/h
Température: 27°C
Humidex: 27°C
Point de Rosée: 14°C
Humidité: 45%
Barometre: 1012 hPa
Visibilité: greater than 10 km
2019/07/20 11:00 LFPM 201100Z AUTO 23016KT CAVOK 27/14 Q1012
 
LFJL - Metz-Nancy-Lorraine,(57)Moselle
Mise à jour: Sat, 20-Jul-2019 01:00 CEST
Clear
Clear
 Wind from SW
Vent: SW 33 km/h
Température: 29°C
Point de Rosée: 12°C
Humidité: 35%
Barometre: 1013 hPa
Visibilité: greater than 10 km
2019/07/20 11:00 LFJL 201100Z AUTO 23018KT CAVOK 29/12 Q1013 TEMPO 25015G25KT BECMG SCT080CB
LFBM - Mont-De-Marsan,(40)Landes
Mise à jour: Sat, 20-Jul-2019 01:00 CEST
Mostly Cloudy
Mostly Cloudy
 Wind from WNW
Vent: WNW 7 km/h
Température: 26°C
Point de Rosée: 18°C
Humidité: 61%
Barometre: 1017 hPa
Nuage: Mostly Cloudy
Visibilité: 10 km
2019/07/20 11:00 LFBM 201100Z AUTO 29004KT 220V360 9999 SCT029 BKN034 26/18 Q1017
LFMT - Montpellier,(34)Hérault
Mise à jour: Sat, 20-Jul-2019 01:00 CEST
Clear
Clear
 Wind from ESE
Vent: ESE 28 km/h
Température: 25°C
Point de Rosée: 22°C
Humidité: 83%
Barometre: 1017 hPa
Visibilité: greater than 10 km
2019/07/20 11:00 LFMT 201100Z AUTO 12015KT CAVOK 25/22 Q1017 TEMPO 18015KT BKN008
 
LFRU - Morlaix Ploujean,(29)Finistère
Mise à jour: Sat, 20-Jul-2019 01:00 CEST
Overcast
Overcast
 Wind from WSW
Vent: WSW 20 km/h
Température: 20°C
Point de Rosée: 15°C
Humidité: 73%
Barometre: 1012 hPa
Nuage: Overcast
Visibilité: 10 km
2019/07/20 11:00 LFRU 201100Z AUTO 25011KT 9999 FEW021 OVC037 20/15 Q1012
LFSN - Nancy,Essey,(54)Meurthe-et-Moselle
Mise à jour: Sat, 20-Jul-2019 01:00 CEST
Clear
Clear
 Wind from SSW
Vent: SSW 24 km/h
Température: 30°C
Point de Rosée: 12°C
Humidité: 33%
Barometre: 1013 hPa
Visibilité: greater than 10 km
2019/07/20 11:00 LFSN 201100Z AUTO 20013KT 170V230 CAVOK 30/12 Q1013
LFSO - Nancy , Ochey,(54)Meurthe-et-Moselle
Mise à jour: Sat, 20-Jul-2019 01:00 CEST
Clear
Clear
 Wind from SW
Vent: SW 28 km/h, Gust: 52 km/h
Température: 30°C
Point de Rosée: 12°C
Humidité: 33%
Barometre: 1014 hPa
Visibilité: greater than 10 km
2019/07/20 11:00 LFSO 201100Z AUTO 23015G28KT 200V260 CAVOK 30/12 Q1014 BECMG 22012KT SCT080CB
 
LFRS - Nantes,(44)Loire-Atlantique
Mise à jour: Sat, 20-Jul-2019 01:00 CEST
Overcast
Overcast
 Wind from W
Vent: W 20 km/h
Température: 22°C
Point de Rosée: 19°C
Humidité: 83%
Barometre: 1014 hPa
Nuage: Overcast
Visibilité: 10 km
2019/07/20 11:00 LFRS 201100Z AUTO 28011KT 9999 FEW020 BKN028 OVC035 22/19 Q1014 BECMG 22010KT
LFQG - Nevers,Fourchamb,(58)Nièvre
Mise à jour: Sat, 20-Jul-2019 01:00 CEST
Clear
Clear
 Wind from WSW
Vent: WSW 17 km/h
Température: 28°C
Humidex: 28°C
Point de Rosée: 16°C
Humidité: 48%
Barometre: 1015 hPa
Visibilité: greater than 10 km
2019/07/20 11:00 LFQG 201100Z AUTO 25009KT 220V290 CAVOK 28/16 Q1015
LFMN - Nice,(06)Alpes-Maritimes
Mise à jour: Sat, 20-Jul-2019 01:00 CEST
Few Clouds
Few Clouds
 Wind from SE
Vent: SE 11 km/h
Température: 27°C
Humidex: 29°C
Point de Rosée: 21°C
Humidité: 70%
Barometre: 1019 hPa
Nuage: Few Clouds
Visibilité: 10 km
2019/07/20 11:00 LFMN 201100Z 13006KT 9999 FEW033TCU 27/21 Q1019 NOSIG
 
LFTW - Nimes, Garons,(30) Gard
Mise à jour: Sat, 20-Jul-2019 01:00 CEST
Few Clouds
Few Clouds
 Wind from S
Vent: S 11 km/h
Température: 29°C
Humidex: 31°C
Point de Rosée: 20°C
Humidité: 58%
Barometre: 1018 hPa
Nuage: Few Clouds
Visibilité: 10 km
2019/07/20 11:00 LFTW 201100Z AUTO 18006KT 110V250 9999 FEW028 29/20 Q1018 NOSIG
LFMO - Orange,(84)Vaucluse
Mise à jour: Sat, 20-Jul-2019 01:00 CEST
Clear
Clear
 Wind from varies
Vent: varies 6 km/h
Température: 27°C
Humidex: 28°C
Point de Rosée: 18°C
Humidité: 58%
Barometre: 1018 hPa
Visibilité: greater than 10 km
2019/07/20 11:00 LFMO 201100Z AUTO VRB03KT CAVOK 27/18 Q1018 TEMPO SCT070TCU
LFOJ - Orleans,(45)Loiret
Mise à jour: Sat, 20-Jul-2019 01:00 CEST
Partly Cloudy
Partly Cloudy
 Wind from WSW
Vent: WSW 30 km/h
Température: 27°C
Humidex: 28°C
Point de Rosée: 16°C
Humidité: 51%
Barometre: 1013 hPa
Nuage: Partly Cloudy
Visibilité: 10 km
2019/07/20 11:00 LFOJ 201100Z AUTO 25016KT 9999 SCT038 27/16 Q1013
 
LFPB - Paris ,Le Bourget,(93)Seine-Saint-Denis
Mise à jour: Sat, 20-Jul-2019 01:00 CEST
Overcast
Overcast
 Wind from SW
Vent: SW 20 km/h
Température: 26°C
Point de Rosée: 15°C
Humidité: 51%
Barometre: 1011 hPa
Nuage: Overcast
Visibilité: 10 km
2019/07/20 11:00 LFPB 201100Z AUTO 23011KT 190V270 9999 BKN049 OVC058 26/15 Q1011 TEMPO 24015G25KT 4000 SHRA SCT040TCU
LFPG - Paris, Charles De Gaulle,(95)Val-d Oise
Mise à jour: Sat, 20-Jul-2019 01:00 CEST
Clear
Clear
 Wind from SSW
Vent: SSW 28 km/h
Température: 26°C
Point de Rosée: 14°C
Humidité: 48%
Barometre: 1012 hPa
Visibilité: greater than 10 km
2019/07/20 11:00 LFPG 201100Z 21015KT 180V280 CAVOK 26/14 Q1012 NOSIG
LFPO - Paris-Orly,(94)Val-de-Marne
Mise à jour: Sat, 20-Jul-2019 01:00 CEST
Partly Cloudy
Partly Cloudy
 Wind from WSW
Vent: WSW 22 km/h
Température: 27°C
Humidex: 27°C
Point de Rosée: 15°C
Humidité: 48%
Barometre: 1012 hPa
Nuage: Partly Cloudy
Visibilité: 10 km
2019/07/20 11:00 LFPO 201100Z 25012KT 210V280 9999 FEW048 SCT066 27/15 Q1012 NOSIG
 
LFBP - Pau,(64)Pyrénées-Atlantiques
Mise à jour: Sat, 20-Jul-2019 01:00 CEST
Overcast
Overcast
 Wind from WNW
Vent: WNW 7 km/h
Température: 22°C
Point de Rosée: 19°C
Humidité: 83%
Barometre: 1017 hPa
Nuage: Overcast
Visibilité: 10 km
2019/07/20 11:00 LFBP 201100Z AUTO 29004KT 260V320 9999 FEW012 OVC019 22/19 Q1017 NOSIG
LFMP - Perpignan,(66)Pyrénées-Orientales
Mise à jour: Sat, 20-Jul-2019 01:00 CEST
Partly Cloudy
Partly Cloudy
 Wind from N
Vent: N 11 km/h
Température: 28°C
Humidex: 30°C
Point de Rosée: 21°C
Humidité: 66%
Barometre: 1016 hPa
Nuage: Partly Cloudy
Visibilité: 10 km
2019/07/20 11:00 LFMP 201100Z AUTO 36006KT 300V060 9999 FEW030/// SCT038/// 28/21 Q1016 TEMPO BKN013
LFBI - Poitiers,(86)Vienne
Mise à jour: Sat, 20-Jul-2019 01:00 CEST
Mostly Cloudy
Mostly Cloudy
 Wind from W
Vent: W 20 km/h
Température: 25°C
Point de Rosée: 16°C
Humidité: 57%
Barometre: 1015 hPa
Nuage: Mostly Cloudy
Visibilité: 10 km
2019/07/20 11:00 LFBI 201100Z AUTO 27011KT 240V300 9999 BKN032 25/16 Q1015 NOSIG
 
LFBP - Pont-Long-Uzein,(64)Pyrénées-Atlantiques
Mise à jour: Sat, 20-Jul-2019 01:00 CEST
Overcast
Overcast
 Wind from WNW
Vent: WNW 7 km/h
Température: 22°C
Point de Rosée: 19°C
Humidité: 83%
Barometre: 1017 hPa
Nuage: Overcast
Visibilité: 10 km
2019/07/20 11:00 LFBP 201100Z AUTO 29004KT 260V320 9999 FEW012 OVC019 22/19 Q1017 NOSIG
TFFR - Point à Pitre,(971)Guadeloupe
Mise à jour: Sat, 20-Jul-2019 01:00 CEST
Clear
Clear
 Wind from varies
Vent: varies 6 km/h
Température: 27°C
Humidex: 30°C
Point de Rosée: 23°C
Humidité: 79%
Barometre: 1016 hPa
Visibilité: greater than 10 km
2019/07/20 11:00 TFFR 201100Z AUTO VRB03KT CAVOK 27/23 Q1016 BECMG 12014KT
LFRQ - Quimper,(29)Finistère
Mise à jour: Sat, 20-Jul-2019 01:00 CEST
Mostly Cloudy
Mostly Cloudy
 Wind from W
Vent: W 22 km/h
Température: 21°C
Point de Rosée: 16°C
Humidité: 73%
Barometre: 1014 hPa
Nuage: Mostly Cloudy
Visibilité: 10 km
2019/07/20 11:00 LFRQ 201100Z AUTO 27012KT 9999 BKN021 BKN030 21/16 Q1014 NOSIG
 
LFQA - Reims,Prunay,(51)Marne
Mise à jour: Sat, 20-Jul-2019 01:00 CEST
Clear
Clear
 Wind from WSW
Vent: WSW 26 km/h
Température: 28°C
Humidex: 27°C
Point de Rosée: 13°C
Humidité: 40%
Barometre: 1011 hPa
Visibilité: greater than 10 km
2019/07/20 11:00 LFQA 201100Z AUTO 24014KT CAVOK 28/13 Q1011
LFRN - Rennes,(35)Ille-et-Vilaine
Mise à jour: Sat, 20-Jul-2019 01:00 CEST
Thunderstorm
Thunderstorm
 Wind from SSW
Vent: SSW 22 km/h
Température: 25°C
Point de Rosée: 17°C
Humidité: 61%
Barometre: 1012 hPa
Nuage: Thunderstorm
Visibilité: 10 km
2019/07/20 11:00 LFRN 201100Z AUTO 21012KT 170V240 9999 BKN034/// BKN041/// BKN054/// ///TCU 25/17 Q1012 BECMG BKN020
LFCR - Rodez,(12)Aveyron
Mise à jour: Sat, 20-Jul-2019 01:00 CEST
Few Clouds
Few Clouds
 Wind from S
Vent: S 19 km/h
Température: 27°C
Humidex: 28°C
Point de Rosée: 17°C
Humidité: 54%
Barometre: 1019 hPa
Nuage: Few Clouds
Visibilité: 10 km
2019/07/20 11:00 LFCR 201100Z AUTO 17010KT 120V220 9999 FEW031 27/17 Q1019 NOSIG
 
LFYR - Romorantin,(41)Loir-et-Cher
Mise à jour: Sat, 20-Jul-2019 01:00 CEST
Clear
Clear
 Wind from WSW
Vent: WSW 19 km/h
Température: 28°C
Point de Rosée: 12°C
Humidité: 37%
Barometre: 1014 hPa
Visibilité: greater than 10 km
2019/07/20 11:00 LFYR 201100Z AUTO 24010KT 200V280 CAVOK 28/12 Q1014
LFOP - Rouen,(76)Seine-Maritime
Mise à jour: Sat, 20-Jul-2019 01:00 CEST
Thunderstorm
Thunderstorm
 Wind from WSW
Vent: WSW 30 km/h, Gust: 48 km/h
Température: 23°C
Point de Rosée: 15°C
Humidité: 61%
Barometre: 1012 hPa
Nuage: Thunderstorm
Visibilité: 10 km
2019/07/20 11:00 LFOP 201100Z AUTO 24016G26KT 200V310 9999 FEW026/// BKN034/// BKN041/// ///CB 23/15 Q1012 TEMPO 4000 TSRA
LFRT - Saint-Brieuc,(22)Côtes-d Armor
Mise à jour: Sat, 20-Jul-2019 01:00 CEST
Overcast
Overcast
 Wind from W
Vent: W 20 km/h
Température: 22°C
Point de Rosée: 15°C
Humidité: 65%
Barometre: 1012 hPa
Nuage: Overcast
Visibilité: 10 km
2019/07/20 11:00 LFRT 201100Z AUTO 26011KT 9999 BKN036 BKN047 OVC054 22/15 Q1012
 
FMEE - Saint-Denis,(974)Réunion
Mise à jour: Sat, 20-Jul-2019 01:00 CEST
Overcast
Overcast
 Wind from ESE
Vent: ESE 24 km/h
Température: 22°C
Point de Rosée: 19°C
Humidité: 83%
Barometre: 1017 hPa
Nuage: Overcast
Visibilité: 10 km
2019/07/20 11:00 FMEE 201100Z AUTO 12013KT 9999 FEW028 SCT037 OVC045 22/19 Q1017 NOSIG
LFLN - Saint-Yan,(71)Saône-et-Loire
Mise à jour: Sat, 20-Jul-2019 01:00 CEST
Thunderstorm
Thunderstorm
 Wind from S
Vent: S 13 km/h
Température: 31°C
Point de Rosée: 11°C
Humidité: 29%
Barometre: 1015 hPa
Nuage: Thunderstorm
Visibilité: 10 km
2019/07/20 11:00 LFLN 201100Z AUTO 17007KT 130V220 9999 ///TCU 31/11 Q1015 BECMG FEW080CB
LFMY - Salon-de-Provence,(13)Bouches-du-Rhône
Mise à jour: Sat, 20-Jul-2019 01:00 CEST
Clear
Clear
 Wind from S
Vent: S 13 km/h
Température: 30°C
Humidex: 29°C
Point de Rosée: 15°C
Humidité: 40%
Barometre: 1018 hPa
Visibilité: greater than 10 km
2019/07/20 11:00 LFMY 201100Z AUTO 18007KT 120V230 CAVOK 30/15 Q1018
 
LFKS - Solenzara,(2A)Corse-du-Sud
Mise à jour: Sat, 20-Jul-2019 01:00 CEST
Clear
Clear
 Wind from SSE
Vent: SSE 19 km/h
Température: 27°C
Humidex: 29°C
Point de Rosée: 21°C
Humidité: 70%
Barometre: 1019 hPa
Visibilité: greater than 10 km
2019/07/20 11:00 LFKS 201100Z AUTO 16010KT CAVOK 27/21 Q1019
LFSI - St-Dizier,(52)Haute-Marne
Mise à jour: Sat, 20-Jul-2019 01:00 CEST
Clear
Clear
 Wind from SW
Vent: SW 26 km/h, Gust: 50 km/h
Température: 29°C
Point de Rosée: 12°C
Humidité: 35%
Barometre: 1013 hPa
Visibilité: greater than 10 km
2019/07/20 11:00 LFSI 201100Z AUTO 23014G27KT 200V260 CAVOK 29/12 Q1013
LFMH - St-Etienne Boutheon,(42) Loire
Mise à jour: Sat, 20-Jul-2019 01:00 CEST
Clear
Clear
 Wind from S
Vent: S 11 km/h
Température: 28°C
Humidex: 27°C
Point de Rosée: 13°C
Humidité: 40%
Barometre: 1017 hPa
Visibilité: greater than 10 km
2019/07/20 11:00 LFMH 201100Z AUTO 18006KT 150V210 CAVOK 28/13 Q1017 BECMG FEW100CB
 
LFVP - St-Pierre et Miquelon,(975)Outre-mer
Mise à jour: Sat, 20-Jul-2019 01:00 CEST
Mostly Cloudy
Mostly Cloudy
 Wind from W
Vent: W 11 km/h
Température: 14°C
Point de Rosée: 13°C
Humidité: 94%
Barometre: 1002 hPa
Nuage: Mostly Cloudy
Visibilité: 10 km
2019/07/20 11:00 LFVP 201100Z 28006KT 210V350 9999 SCT008 BKN130 14/13 Q1002 NOSIG
LFRZ - St-Nazaire,(44)Loire-Atlantique
Mise à jour: Sat, 20-Jul-2019 01:00 CEST
Mostly Cloudy
Mostly Cloudy
 Wind from SW
Vent: SW 28 km/h
Température: 20°C
Point de Rosée: 17°C
Humidité: 83%
Barometre: 1014 hPa
Nuage: Mostly Cloudy
Visibilité: 10 km
2019/07/20 11:00 LFRZ 201100Z AUTO 23015KT 9999 BKN014 20/17 Q1014 BECMG BKN020
LFST - Strasbourg,(67)Bas-Rhin
Mise à jour: Sat, 20-Jul-2019 01:00 CEST
Clear
Clear
 Wind from S
Vent: S 15 km/h
Température: 30°C
Humidex: 30°C
Point de Rosée: 16°C
Humidité: 43%
Barometre: 1013 hPa
Visibilité: greater than 10 km
2019/07/20 11:00 LFST 201100Z AUTO 19008KT 140V230 CAVOK 30/16 Q1013 NOSIG
 
LFBT - Tarbes, Ossun,(65)Hautes-Pyrénées
Mise à jour: Sat, 20-Jul-2019 01:00 CEST
Overcast
Overcast
 Wind from NW
Vent: NW 6 km/h
Température: 25°C
Point de Rosée: 18°C
Humidité: 65%
Barometre: 1018 hPa
Nuage: Overcast
Visibilité: 10 km
2019/07/20 11:00 LFBT 201100Z AUTO 32003KT 250V040 9999 BKN024 OVC029 25/18 Q1018 NOSIG
LFBO - Toulouse,Blagnac,(31)Haute-Garonne
Mise à jour: Sat, 20-Jul-2019 01:00 CEST
Overcast
Overcast
 Wind from E
Vent: E 7 km/h
Température: 25°C
Point de Rosée: 19°C
Humidité: 69%
Barometre: 1017 hPa
Nuage: Overcast
Visibilité: 10 km
2019/07/20 11:00 LFBO 201100Z AUTO 08004KT 030V130 9999 BKN026 BKN036 OVC044 25/19 Q1017 NOSIG
LFOT - Tours,(37)Indre-et-Loire
Mise à jour: Sat, 20-Jul-2019 01:00 CEST
Overcast
Overcast
 Wind from SW
Vent: SW 20 km/h
Température: 24°C
Point de Rosée: 16°C
Humidité: 61%
Barometre: 1014 hPa
Nuage: Overcast
Visibilité: 10 km
2019/07/20 11:00 LFOT 201100Z AUTO 23011KT 200V270 9999 OVC029 24/16 Q1014 NOSIG
 
LFPN - Toussus Le Noble,(78)Yvelines
Mise à jour: Sat, 20-Jul-2019 01:00 CEST
Mostly Cloudy
Mostly Cloudy
 Wind from SW
Vent: SW 26 km/h
Température: 27°C
Humidex: 28°C
Point de Rosée: 16°C
Humidité: 51%
Barometre: 1012 hPa
Nuage: Mostly Cloudy
Visibilité: 10 km
2019/07/20 11:00 LFPN 201100Z AUTO 23014KT 9999 BKN040 BKN046 BKN060 27/16 Q1012 NOSIG
LFQB - Troyes,Barberey,(10)Aube
Mise à jour: Sat, 20-Jul-2019 01:00 CEST
Clear
Clear
 Wind from SSW
Vent: SSW 28 km/h
Température: 30°C
Humidex: 30°C
Point de Rosée: 16°C
Humidité: 43%
Barometre: 1012 hPa
Visibilité: greater than 10 km
2019/07/20 11:00 LFQB 201100Z AUTO 21015KT 180V240 CAVOK 30/16 Q1012
LFLU - VALENCE Chabeuil,(26)Drôme
Mise à jour: Sat, 20-Jul-2019 01:00 CEST
Clear
Clear
 Wind from SW
Vent: SW 26 km/h
Température: 27°C
Humidex: 27°C
Point de Rosée: 14°C
Humidité: 45%
Barometre: 1017 hPa
Visibilité: greater than 10 km
2019/07/20 11:00 LFLU 201100Z AUTO 22014KT CAVOK 27/14 Q1017
 
LFRV - Vannes,Meucon,(56)Morbihan
Mise à jour: Sat, 20-Jul-2019 01:00 CEST
Mostly Cloudy
Mostly Cloudy
 Wind from W
Vent: W 17 km/h
Température: 21°C
Point de Rosée: 16°C
Humidité: 73%
Barometre: 1013 hPa
Nuage: Mostly Cloudy
Visibilité: 10 km
2019/07/20 11:00 LFRV 201100Z AUTO 27009KT 210V310 9999 BKN023 BKN062 21/16 Q1013
LFPV - Villacoublay,(78)Yvelines
Mise à jour: Sat, 20-Jul-2019 01:00 CEST
Mostly Cloudy
Mostly Cloudy
 Wind from SW
Vent: SW 22 km/h
Température: 26°C
Point de Rosée: 15°C
Humidité: 51%
Barometre: 1012 hPa
Nuage: Mostly Cloudy
Visibilité: 10 km
2019/07/20 11:00 LFPV 201100Z AUTO 23012KT 200V270 9999 FEW042 SCT050 BKN066 26/15 Q1012 NOSIG

Metar display script from Saratoga-Weather.org